sensor_id;sensor_type;location;lat;lon;timestamp;P1;durP1;ratioP1;P2;durP2;ratioP2
6013;SDS011;3035;49.928;8.410;2023-07-08T00:00:09;15.40;;;7.30;;
6013;SDS011;3035;49.928;8.410;2023-07-08T00:02:39;15.20;;;7.43;;
6013;SDS011;3035;49.928;8.410;2023-07-08T00:05:07;13.13;;;7.43;;
6013;SDS011;3035;49.928;8.410;2023-07-08T00:07:35;12.47;;;7.03;;
6013;SDS011;3035;49.928;8.410;2023-07-08T00:10:13;14.70;;;7.50;;
6013;SDS011;3035;49.928;8.410;2023-07-08T00:12:42;12.80;;;7.20;;
6013;SDS011;3035;49.928;8.410;2023-07-08T00:15:10;12.20;;;7.67;;
6013;SDS011;3035;49.928;8.410;2023-07-08T00:17:38;14.90;;;7.47;;
6013;SDS011;3035;49.928;8.410;2023-07-08T00:20:10;18.90;;;7.90;;
6013;SDS011;3035;49.928;8.410;2023-07-08T00:22:41;18.40;;;7.40;;
6013;SDS011;3035;49.928;8.410;2023-07-08T00:25:09;17.77;;;8.07;;
6013;SDS011;3035;49.928;8.410;2023-07-08T00:27:37;22.17;;;7.77;;
6013;SDS011;3035;49.928;8.410;2023-07-08T00:30:13;12.70;;;6.70;;
6013;SDS011;3035;49.928;8.410;2023-07-08T00:32:52;13.33;;;7.30;;
6013;SDS011;3035;49.928;8.410;2023-07-08T00:35:30;12.87;;;6.70;;
6013;SDS011;3035;49.928;8.410;2023-07-08T00:37:53;12.40;;;7.27;;
6013;SDS011;3035;49.928;8.410;2023-07-08T00:40:21;13.73;;;6.90;;
6013;SDS011;3035;49.928;8.410;2023-07-08T00:42:49;9.70;;;6.50;;
6013;SDS011;3035;49.928;8.410;2023-07-08T00:45:23;14.93;;;6.13;;
6013;SDS011;3035;49.928;8.410;2023-07-08T00:47:53;14.67;;;6.73;;
6013;SDS011;3035;49.928;8.410;2023-07-08T00:50:22;11.33;;;6.57;;
6013;SDS011;3035;49.928;8.410;2023-07-08T00:52:50;10.57;;;6.50;;
6013;SDS011;3035;49.928;8.410;2023-07-08T00:55:18;10.37;;;7.00;;
6013;SDS011;3035;49.928;8.410;2023-07-08T00:57:47;10.00;;;6.60;;
6013;SDS011;3035;49.928;8.410;2023-07-08T01:00:17;14.13;;;6.00;;
6013;SDS011;3035;49.928;8.410;2023-07-08T01:02:46;13.97;;;6.43;;
6013;SDS011;3035;49.928;8.410;2023-07-08T01:05:18;13.83;;;6.33;;
6013;SDS011;3035;49.928;8.410;2023-07-08T01:07:47;9.73;;;6.23;;
6013;SDS011;3035;49.928;8.410;2023-07-08T01:10:14;12.07;;;7.10;;
6013;SDS011;3035;49.928;8.410;2023-07-08T01:12:44;11.33;;;6.57;;
6013;SDS011;3035;49.928;8.410;2023-07-08T01:15:11;11.60;;;6.10;;
6013;SDS011;3035;49.928;8.410;2023-07-08T01:17:41;18.57;;;6.23;;
6013;SDS011;3035;49.928;8.410;2023-07-08T01:20:09;10.30;;;5.30;;
6013;SDS011;3035;49.928;8.410;2023-07-08T01:22:40;10.53;;;6.60;;
6013;SDS011;3035;49.928;8.410;2023-07-08T01:25:08;10.90;;;5.70;;
6013;SDS011;3035;49.928;8.410;2023-07-08T01:27:37;11.53;;;5.50;;
6013;SDS011;3035;49.928;8.410;2023-07-08T01:30:05;8.87;;;5.40;;
6013;SDS011;3035;49.928;8.410;2023-07-08T01:32:34;11.17;;;6.03;;
6013;SDS011;3035;49.928;8.410;2023-07-08T01:35:02;13.00;;;5.70;;
6013;SDS011;3035;49.928;8.410;2023-07-08T01:37:34;12.90;;;6.13;;
6013;SDS011;3035;49.928;8.410;2023-07-08T01:42:42;12.27;;;6.73;;
6013;SDS011;3035;49.928;8.410;2023-07-08T01:45:11;10.80;;;6.53;;
6013;SDS011;3035;49.928;8.410;2023-07-08T01:47:40;9.27;;;6.50;;
6013;SDS011;3035;49.928;8.410;2023-07-08T01:50:09;11.03;;;5.10;;
6013;SDS011;3035;49.928;8.410;2023-07-08T01:52:37;9.43;;;5.50;;
6013;SDS011;3035;49.928;8.410;2023-07-08T01:55:05;10.93;;;5.87;;
6013;SDS011;3035;49.928;8.410;2023-07-08T01:57:33;12.70;;;6.17;;
6013;SDS011;3035;49.928;8.410;2023-07-08T02:00:02;11.67;;;5.50;;
6013;SDS011;3035;49.928;8.410;2023-07-08T02:02:30;36.80;;;6.80;;
6013;SDS011;3035;49.928;8.410;2023-07-08T02:04:58;8.70;;;5.17;;
6013;SDS011;3035;49.928;8.410;2023-07-08T02:07:26;17.50;;;5.30;;
6013;SDS011;3035;49.928;8.410;2023-07-08T02:09:55;9.60;;;5.77;;
6013;SDS011;3035;49.928;8.410;2023-07-08T02:12:23;12.87;;;5.57;;
6013;SDS011;3035;49.928;8.410;2023-07-08T02:14:51;8.60;;;5.70;;
6013;SDS011;3035;49.928;8.410;2023-07-08T02:17:19;9.53;;;5.17;;
6013;SDS011;3035;49.928;8.410;2023-07-08T02:19:47;9.60;;;5.73;;
6013;SDS011;3035;49.928;8.410;2023-07-08T02:22:16;11.97;;;5.87;;
6013;SDS011;3035;49.928;8.410;2023-07-08T02:24:44;11.80;;;5.70;;
6013;SDS011;3035;49.928;8.410;2023-07-08T02:27:12;7.93;;;5.60;;
6013;SDS011;3035;49.928;8.410;2023-07-08T02:29:40;10.10;;;5.33;;
6013;SDS011;3035;49.928;8.410;2023-07-08T02:32:09;9.13;;;5.20;;
6013;SDS011;3035;49.928;8.410;2023-07-08T02:34:37;9.10;;;5.70;;
6013;SDS011;3035;49.928;8.410;2023-07-08T02:37:05;10.47;;;5.87;;
6013;SDS011;3035;49.928;8.410;2023-07-08T02:39:33;21.40;;;5.70;;
6013;SDS011;3035;49.928;8.410;2023-07-08T02:42:01;8.93;;;5.43;;
6013;SDS011;3035;49.928;8.410;2023-07-08T02:44:30;10.50;;;6.00;;
6013;SDS011;3035;49.928;8.410;2023-07-08T02:46:58;11.80;;;5.80;;
6013;SDS011;3035;49.928;8.410;2023-07-08T02:49:26;11.47;;;5.90;;
6013;SDS011;3035;49.928;8.410;2023-07-08T02:51:54;7.93;;;5.33;;
6013;SDS011;3035;49.928;8.410;2023-07-08T02:54:22;7.87;;;5.30;;
6013;SDS011;3035;49.928;8.410;2023-07-08T02:56:51;6.90;;;5.80;;
6013;SDS011;3035;49.928;8.410;2023-07-08T02:59:19;10.80;;;5.53;;
6013;SDS011;3035;49.928;8.410;2023-07-08T03:01:47;9.93;;;5.73;;
6013;SDS011;3035;49.928;8.410;2023-07-08T03:04:15;8.17;;;5.67;;
6013;SDS011;3035;49.928;8.410;2023-07-08T03:06:44;16.70;;;5.37;;
6013;SDS011;3035;49.928;8.410;2023-07-08T03:09:12;9.90;;;5.80;;
6013;SDS011;3035;49.928;8.410;2023-07-08T03:11:40;36.60;;;6.30;;
6013;SDS011;3035;49.928;8.410;2023-07-08T03:14:08;12.63;;;6.10;;
6013;SDS011;3035;49.928;8.410;2023-07-08T03:16:36;17.43;;;5.17;;
6013;SDS011;3035;49.928;8.410;2023-07-08T03:19:04;15.23;;;5.70;;
6013;SDS011;3035;49.928;8.410;2023-07-08T03:21:33;10.17;;;6.47;;
6013;SDS011;3035;49.928;8.410;2023-07-08T03:24:01;28.70;;;5.87;;
6013;SDS011;3035;49.928;8.410;2023-07-08T03:26:29;11.10;;;6.53;;
6013;SDS011;3035;49.928;8.410;2023-07-08T03:28:57;14.40;;;5.47;;
6013;SDS011;3035;49.928;8.410;2023-07-08T03:31:25;14.80;;;6.33;;
6013;SDS011;3035;49.928;8.410;2023-07-08T03:33:54;8.50;;;5.43;;
6013;SDS011;3035;49.928;8.410;2023-07-08T03:36:22;9.03;;;5.33;;
6013;SDS011;3035;49.928;8.410;2023-07-08T03:38:51;9.37;;;5.57;;
6013;SDS011;3035;49.928;8.410;2023-07-08T03:41:19;8.80;;;5.30;;
6013;SDS011;3035;49.928;8.410;2023-07-08T03:43:47;7.73;;;5.13;;
6013;SDS011;3035;49.928;8.410;2023-07-08T03:46:16;15.40;;;5.60;;
6013;SDS011;3035;49.928;8.410;2023-07-08T03:48:44;14.63;;;5.93;;
6013;SDS011;3035;49.928;8.410;2023-07-08T03:51:17;13.90;;;5.97;;
6013;SDS011;3035;49.928;8.410;2023-07-08T03:53:44;19.33;;;5.50;;
6013;SDS011;3035;49.928;8.410;2023-07-08T03:56:12;10.13;;;5.50;;
6013;SDS011;3035;49.928;8.410;2023-07-08T03:58:41;18.50;;;5.60;;
6013;SDS011;3035;49.928;8.410;2023-07-08T04:01:12;11.40;;;6.50;;
6013;SDS011;3035;49.928;8.410;2023-07-08T04:03:53;26.40;;;5.60;;
6013;SDS011;3035;49.928;8.410;2023-07-08T04:06:20;9.07;;;4.60;;
6013;SDS011;3035;49.928;8.410;2023-07-08T04:08:48;8.80;;;5.73;;
6013;SDS011;3035;49.928;8.410;2023-07-08T04:11:18;18.97;;;5.80;;
6013;SDS011;3035;49.928;8.410;2023-07-08T04:13:46;13.03;;;5.60;;
6013;SDS011;3035;49.928;8.410;2023-07-08T04:16:16;7.93;;;5.13;;
6013;SDS011;3035;49.928;8.410;2023-07-08T04:18:44;9.73;;;6.10;;
6013;SDS011;3035;49.928;8.410;2023-07-08T04:21:13;15.77;;;5.87;;
6013;SDS011;3035;49.928;8.410;2023-07-08T04:23:41;22.07;;;5.87;;
6013;SDS011;3035;49.928;8.410;2023-07-08T04:26:09;10.37;;;6.03;;
6013;SDS011;3035;49.928;8.410;2023-07-08T04:28:37;10.97;;;5.27;;
6013;SDS011;3035;49.928;8.410;2023-07-08T04:31:05;17.30;;;5.93;;
6013;SDS011;3035;49.928;8.410;2023-07-08T04:33:34;10.07;;;5.23;;
6013;SDS011;3035;49.928;8.410;2023-07-08T04:36:02;6.47;;;5.37;;
6013;SDS011;3035;49.928;8.410;2023-07-08T04:38:30;12.20;;;6.60;;
6013;SDS011;3035;49.928;8.410;2023-07-08T04:40:58;9.53;;;5.90;;
6013;SDS011;3035;49.928;8.410;2023-07-08T04:43:26;9.93;;;5.73;;
6013;SDS011;3035;49.928;8.410;2023-07-08T04:45:55;15.83;;;5.70;;
6013;SDS011;3035;49.928;8.410;2023-07-08T04:48:23;11.07;;;5.60;;
6013;SDS011;3035;49.928;8.410;2023-07-08T04:50:52;12.33;;;4.70;;
6013;SDS011;3035;49.928;8.410;2023-07-08T04:53:19;18.53;;;5.40;;
6013;SDS011;3035;49.928;8.410;2023-07-08T04:55:50;13.37;;;5.40;;
6013;SDS011;3035;49.928;8.410;2023-07-08T04:58:17;13.80;;;5.60;;
6013;SDS011;3035;49.928;8.410;2023-07-08T05:00:46;9.30;;;5.50;;
6013;SDS011;3035;49.928;8.410;2023-07-08T05:03:14;8.40;;;5.27;;
6013;SDS011;3035;49.928;8.410;2023-07-08T05:05:42;7.90;;;5.40;;
6013;SDS011;3035;49.928;8.410;2023-07-08T05:08:11;14.60;;;5.83;;
6013;SDS011;3035;49.928;8.410;2023-07-08T05:10:38;10.70;;;5.10;;
6013;SDS011;3035;49.928;8.410;2023-07-08T05:13:07;9.07;;;5.60;;
6013;SDS011;3035;49.928;8.410;2023-07-08T05:15:35;9.30;;;5.10;;
6013;SDS011;3035;49.928;8.410;2023-07-08T05:18:03;8.23;;;5.60;;
6013;SDS011;3035;49.928;8.410;2023-07-08T05:20:31;13.33;;;5.63;;
6013;SDS011;3035;49.928;8.410;2023-07-08T05:22:59;6.90;;;5.03;;
6013;SDS011;3035;49.928;8.410;2023-07-08T05:25:31;8.50;;;5.47;;
6013;SDS011;3035;49.928;8.410;2023-07-08T05:27:56;9.67;;;5.50;;
6013;SDS011;3035;49.928;8.410;2023-07-08T05:30:24;8.97;;;5.50;;
6013;SDS011;3035;49.928;8.410;2023-07-08T05:32:53;7.20;;;4.97;;
6013;SDS011;3035;49.928;8.410;2023-07-08T05:35:21;9.70;;;5.30;;
6013;SDS011;3035;49.928;8.410;2023-07-08T05:37:49;12.57;;;5.30;;
6013;SDS011;3035;49.928;8.410;2023-07-08T05:40:17;9.83;;;5.43;;
6013;SDS011;3035;49.928;8.410;2023-07-08T05:42:45;14.60;;;5.40;;
6013;SDS011;3035;49.928;8.410;2023-07-08T05:45:14;6.87;;;5.10;;
6013;SDS011;3035;49.928;8.410;2023-07-08T05:47:42;7.80;;;4.90;;
6013;SDS011;3035;49.928;8.410;2023-07-08T05:50:10;7.73;;;5.53;;
6013;SDS011;3035;49.928;8.410;2023-07-08T05:52:38;8.93;;;5.33;;
6013;SDS011;3035;49.928;8.410;2023-07-08T05:55:07;9.70;;;5.23;;
6013;SDS011;3035;49.928;8.410;2023-07-08T05:57:35;8.80;;;4.80;;
6013;SDS011;3035;49.928;8.410;2023-07-08T06:00:04;9.03;;;5.10;;
6013;SDS011;3035;49.928;8.410;2023-07-08T06:02:33;9.10;;;5.40;;
6013;SDS011;3035;49.928;8.410;2023-07-08T06:05:01;6.80;;;4.73;;
6013;SDS011;3035;49.928;8.410;2023-07-08T06:07:29;7.87;;;4.97;;
6013;SDS011;3035;49.928;8.410;2023-07-08T06:09:57;8.60;;;6.00;;
6013;SDS011;3035;49.928;8.410;2023-07-08T06:12:26;11.00;;;6.17;;
6013;SDS011;3035;49.928;8.410;2023-07-08T06:14:54;8.90;;;5.50;;
6013;SDS011;3035;49.928;8.410;2023-07-08T06:17:22;7.63;;;5.20;;
6013;SDS011;3035;49.928;8.410;2023-07-08T06:19:50;16.37;;;5.33;;
6013;SDS011;3035;49.928;8.410;2023-07-08T06:22:18;9.77;;;5.10;;
6013;SDS011;3035;49.928;8.410;2023-07-08T06:24:47;10.37;;;5.53;;
6013;SDS011;3035;49.928;8.410;2023-07-08T06:27:15;7.07;;;4.87;;
6013;SDS011;3035;49.928;8.410;2023-07-08T06:29:43;7.90;;;5.50;;
6013;SDS011;3035;49.928;8.410;2023-07-08T06:32:11;10.50;;;5.40;;
6013;SDS011;3035;49.928;8.410;2023-07-08T06:34:39;6.63;;;4.87;;
6013;SDS011;3035;49.928;8.410;2023-07-08T06:37:08;9.97;;;5.27;;
6013;SDS011;3035;49.928;8.410;2023-07-08T06:39:37;7.77;;;5.00;;
6013;SDS011;3035;49.928;8.410;2023-07-08T06:42:05;10.53;;;5.63;;
6013;SDS011;3035;49.928;8.410;2023-07-08T06:44:33;8.00;;;5.10;;
6013;SDS011;3035;49.928;8.410;2023-07-08T06:47:01;9.80;;;5.00;;
6013;SDS011;3035;49.928;8.410;2023-07-08T06:49:30;9.70;;;5.70;;
6013;SDS011;3035;49.928;8.410;2023-07-08T06:51:58;7.90;;;5.50;;
6013;SDS011;3035;49.928;8.410;2023-07-08T06:54:26;9.93;;;5.70;;
6013;SDS011;3035;49.928;8.410;2023-07-08T06:56:55;6.33;;;4.63;;
6013;SDS011;3035;49.928;8.410;2023-07-08T06:59:24;6.63;;;4.23;;
6013;SDS011;3035;49.928;8.410;2023-07-08T07:01:53;10.93;;;5.47;;
6013;SDS011;3035;49.928;8.410;2023-07-08T07:04:22;7.80;;;4.97;;
6013;SDS011;3035;49.928;8.410;2023-07-08T07:06:50;14.70;;;5.87;;
6013;SDS011;3035;49.928;8.410;2023-07-08T07:09:19;10.83;;;5.50;;
6013;SDS011;3035;49.928;8.410;2023-07-08T07:11:47;8.97;;;5.20;;
6013;SDS011;3035;49.928;8.410;2023-07-08T07:14:16;13.47;;;4.97;;
6013;SDS011;3035;49.928;8.410;2023-07-08T07:16:44;9.13;;;5.17;;
6013;SDS011;3035;49.928;8.410;2023-07-08T07:19:14;9.00;;;5.00;;
6013;SDS011;3035;49.928;8.410;2023-07-08T07:21:42;13.77;;;5.57;;
6013;SDS011;3035;49.928;8.410;2023-07-08T07:24:11;10.23;;;5.63;;
6013;SDS011;3035;49.928;8.410;2023-07-08T07:26:39;7.27;;;4.83;;
6013;SDS011;3035;49.928;8.410;2023-07-08T07:29:07;12.53;;;5.87;;
6013;SDS011;3035;49.928;8.410;2023-07-08T07:31:36;8.27;;;4.77;;
6013;SDS011;3035;49.928;8.410;2023-07-08T07:34:05;6.80;;;5.10;;
6013;SDS011;3035;49.928;8.410;2023-07-08T07:36:34;10.20;;;5.17;;
6013;SDS011;3035;49.928;8.410;2023-07-08T07:39:02;6.73;;;4.50;;
6013;SDS011;3035;49.928;8.410;2023-07-08T07:41:31;6.80;;;4.80;;
6013;SDS011;3035;49.928;8.410;2023-07-08T07:43:59;7.33;;;4.70;;
6013;SDS011;3035;49.928;8.410;2023-07-08T07:46:28;9.50;;;4.53;;
6013;SDS011;3035;49.928;8.410;2023-07-08T07:48:57;10.30;;;4.90;;
6013;SDS011;3035;49.928;8.410;2023-07-08T07:51:26;7.37;;;4.77;;
6013;SDS011;3035;49.928;8.410;2023-07-08T07:53:54;8.17;;;5.30;;
6013;SDS011;3035;49.928;8.410;2023-07-08T07:56:22;7.40;;;4.40;;
6013;SDS011;3035;49.928;8.410;2023-07-08T07:58:50;8.60;;;5.13;;
6013;SDS011;3035;49.928;8.410;2023-07-08T08:01:18;12.50;;;5.33;;
6013;SDS011;3035;49.928;8.410;2023-07-08T08:03:48;14.03;;;5.17;;
6013;SDS011;3035;49.928;8.410;2023-07-08T08:06:15;10.73;;;4.73;;
6013;SDS011;3035;49.928;8.410;2023-07-08T08:08:44;9.43;;;4.50;;
6013;SDS011;3035;49.928;8.410;2023-07-08T08:11:12;7.43;;;4.67;;
6013;SDS011;3035;49.928;8.410;2023-07-08T08:13:41;9.10;;;5.13;;
6013;SDS011;3035;49.928;8.410;2023-07-08T08:16:09;5.40;;;4.43;;
6013;SDS011;3035;49.928;8.410;2023-07-08T08:18:37;9.30;;;4.43;;
6013;SDS011;3035;49.928;8.410;2023-07-08T08:21:05;7.60;;;4.80;;
6013;SDS011;3035;49.928;8.410;2023-07-08T08:23:33;11.30;;;5.00;;
6013;SDS011;3035;49.928;8.410;2023-07-08T08:26:01;8.03;;;5.03;;
6013;SDS011;3035;49.928;8.410;2023-07-08T08:28:30;7.47;;;5.30;;
6013;SDS011;3035;49.928;8.410;2023-07-08T08:30:58;9.53;;;5.60;;
6013;SDS011;3035;49.928;8.410;2023-07-08T08:33:26;6.90;;;4.90;;
6013;SDS011;3035;49.928;8.410;2023-07-08T08:35:54;58.67;;;9.00;;
6013;SDS011;3035;49.928;8.410;2023-07-08T08:38:22;27.00;;;6.60;;
6013;SDS011;3035;49.928;8.410;2023-07-08T08:40:51;11.20;;;5.57;;
6013;SDS011;3035;49.928;8.410;2023-07-08T08:43:20;33.57;;;6.67;;
6013;SDS011;3035;49.928;8.410;2023-07-08T08:48:35;8.87;;;5.73;;
6013;SDS011;3035;49.928;8.410;2023-07-08T08:51:05;10.67;;;5.30;;
6013;SDS011;3035;49.928;8.410;2023-07-08T08:53:30;10.33;;;5.80;;
6013;SDS011;3035;49.928;8.410;2023-07-08T08:58:43;18.60;;;5.40;;
6013;SDS011;3035;49.928;8.410;2023-07-08T09:01:11;21.27;;;5.30;;
6013;SDS011;3035;49.928;8.410;2023-07-08T09:03:45;9.50;;;5.57;;
6013;SDS011;3035;49.928;8.410;2023-07-08T09:06:31;12.97;;;6.90;;
6013;SDS011;3035;49.928;8.410;2023-07-08T09:09:02;13.20;;;5.67;;
6013;SDS011;3035;49.928;8.410;2023-07-08T09:14:23;6.90;;;5.20;;
6013;SDS011;3035;49.928;8.410;2023-07-08T09:20:06;23.03;;;5.97;;
6013;SDS011;3035;49.928;8.410;2023-07-08T09:22:41;7.20;;;5.87;;
6013;SDS011;3035;49.928;8.410;2023-07-08T09:25:29;9.37;;;6.07;;
6013;SDS011;3035;49.928;8.410;2023-07-08T09:28:06;8.37;;;5.40;;
6013;SDS011;3035;49.928;8.410;2023-07-08T09:30:34;8.97;;;5.47;;
6013;SDS011;3035;49.928;8.410;2023-07-08T09:33:02;9.63;;;5.30;;
6013;SDS011;3035;49.928;8.410;2023-07-08T09:38:08;22.10;;;6.73;;
6013;SDS011;3035;49.928;8.410;2023-07-08T09:40:35;8.53;;;5.90;;
6013;SDS011;3035;49.928;8.410;2023-07-08T09:43:05;8.73;;;6.10;;
6013;SDS011;3035;49.928;8.410;2023-07-08T09:45:44;15.73;;;6.10;;
6013;SDS011;3035;49.928;8.410;2023-07-08T09:48:17;9.23;;;5.13;;
6013;SDS011;3035;49.928;8.410;2023-07-08T09:50:47;9.47;;;5.63;;
6013;SDS011;3035;49.928;8.410;2023-07-08T09:53:13;7.60;;;5.13;;
6013;SDS011;3035;49.928;8.410;2023-07-08T09:55:40;14.67;;;6.37;;
6013;SDS011;3035;49.928;8.410;2023-07-08T09:58:11;10.00;;;6.03;;
6013;SDS011;3035;49.928;8.410;2023-07-08T10:00:40;7.03;;;5.73;;
6013;SDS011;3035;49.928;8.410;2023-07-08T10:05:43;11.83;;;6.20;;
6013;SDS011;3035;49.928;8.410;2023-07-08T10:08:14;13.63;;;6.43;;
6013;SDS011;3035;49.928;8.410;2023-07-08T10:10:52;6.80;;;4.97;;
6013;SDS011;3035;49.928;8.410;2023-07-08T10:13:35;10.00;;;4.83;;
6013;SDS011;3035;49.928;8.410;2023-07-08T10:16:12;10.27;;;5.70;;
6013;SDS011;3035;49.928;8.410;2023-07-08T10:18:48;18.10;;;5.20;;
6013;SDS011;3035;49.928;8.410;2023-07-08T10:21:22;9.37;;;5.67;;
6013;SDS011;3035;49.928;8.410;2023-07-08T10:24:06;8.33;;;5.60;;
6013;SDS011;3035;49.928;8.410;2023-07-08T10:26:45;9.30;;;5.80;;
6013;SDS011;3035;49.928;8.410;2023-07-08T10:31:56;10.17;;;5.93;;
6013;SDS011;3035;49.928;8.410;2023-07-08T10:34:42;12.50;;;5.40;;
6013;SDS011;3035;49.928;8.410;2023-07-08T10:37:22;7.83;;;5.50;;
6013;SDS011;3035;49.928;8.410;2023-07-08T10:43:11;8.80;;;5.60;;
6013;SDS011;3035;49.928;8.410;2023-07-08T10:49:00;11.37;;;5.70;;
6013;SDS011;3035;49.928;8.410;2023-07-08T10:51:40;13.20;;;5.53;;
6013;SDS011;3035;49.928;8.410;2023-07-08T10:54:27;8.70;;;5.77;;
6013;SDS011;3035;49.928;8.410;2023-07-08T10:57:19;7.20;;;5.10;;
6013;SDS011;3035;49.928;8.410;2023-07-08T10:59:52;7.50;;;5.80;;
6013;SDS011;3035;49.928;8.410;2023-07-08T11:02:22;8.80;;;5.10;;
6013;SDS011;3035;49.928;8.410;2023-07-08T11:07:52;13.70;;;5.17;;
6013;SDS011;3035;49.928;8.410;2023-07-08T11:10:26;8.77;;;5.10;;
6013;SDS011;3035;49.928;8.410;2023-07-08T11:12:56;11.43;;;5.60;;
6013;SDS011;3035;49.928;8.410;2023-07-08T11:15:33;8.67;;;5.93;;
6013;SDS011;3035;49.928;8.410;2023-07-08T11:18:25;17.63;;;5.47;;
6013;SDS011;3035;49.928;8.410;2023-07-08T11:20:56;10.93;;;6.27;;
6013;SDS011;3035;49.928;8.410;2023-07-08T11:23:26;12.30;;;5.80;;
6013;SDS011;3035;49.928;8.410;2023-07-08T11:28:43;18.03;;;5.70;;
6013;SDS011;3035;49.928;8.410;2023-07-08T11:31:11;15.37;;;5.07;;
6013;SDS011;3035;49.928;8.410;2023-07-08T11:33:39;6.67;;;4.97;;
6013;SDS011;3035;49.928;8.410;2023-07-08T11:36:08;11.20;;;5.53;;
6013;SDS011;3035;49.928;8.410;2023-07-08T11:38:36;8.80;;;4.80;;
6013;SDS011;3035;49.928;8.410;2023-07-08T11:41:11;8.10;;;5.37;;
6013;SDS011;3035;49.928;8.410;2023-07-08T11:43:44;5.30;;;4.27;;
6013;SDS011;3035;49.928;8.410;2023-07-08T11:46:19;6.23;;;4.83;;
6013;SDS011;3035;49.928;8.410;2023-07-08T11:48:43;6.20;;;4.33;;
6013;SDS011;3035;49.928;8.410;2023-07-08T11:51:14;7.20;;;5.37;;
6013;SDS011;3035;49.928;8.410;2023-07-08T11:53:46;11.47;;;5.20;;
6013;SDS011;3035;49.928;8.410;2023-07-08T11:56:19;6.40;;;4.47;;
6013;SDS011;3035;49.928;8.410;2023-07-08T12:01:36;4.70;;;3.87;;
6013;SDS011;3035;49.928;8.410;2023-07-08T12:04:24;8.55;;;4.15;;
6013;SDS011;3035;49.928;8.410;2023-07-08T12:09:35;8.07;;;4.95;;
6013;SDS011;3035;49.928;8.410;2023-07-08T12:11:59;7.03;;;4.47;;
6013;SDS011;3035;49.928;8.410;2023-07-08T12:14:28;7.20;;;4.62;;
6013;SDS011;3035;49.928;8.410;2023-07-08T12:16:57;6.35;;;3.65;;
6013;SDS011;3035;49.928;8.410;2023-07-08T12:19:27;8.20;;;4.00;;
6013;SDS011;3035;49.928;8.410;2023-07-08T12:21:54;11.20;;;3.83;;
6013;SDS011;3035;49.928;8.410;2023-07-08T12:24:22;5.18;;;3.62;;
6013;SDS011;3035;49.928;8.410;2023-07-08T12:26:50;9.32;;;3.58;;
6013;SDS011;3035;49.928;8.410;2023-07-08T12:29:20;7.95;;;3.75;;
6013;SDS011;3035;49.928;8.410;2023-07-08T12:31:48;10.32;;;3.70;;
6013;SDS011;3035;49.928;8.410;2023-07-08T12:34:16;8.00;;;4.35;;
6013;SDS011;3035;49.928;8.410;2023-07-08T12:36:45;6.60;;;4.12;;
6013;SDS011;3035;49.928;8.410;2023-07-08T12:39:15;4.50;;;4.10;;
6013;SDS011;3035;49.928;8.410;2023-07-08T12:41:44;10.77;;;4.28;;
6013;SDS011;3035;49.928;8.410;2023-07-08T12:44:18;6.70;;;4.50;;
6013;SDS011;3035;49.928;8.410;2023-07-08T12:46:47;5.00;;;3.50;;
6013;SDS011;3035;49.928;8.410;2023-07-08T12:49:16;7.22;;;3.55;;
6013;SDS011;3035;49.928;8.410;2023-07-08T12:51:45;9.27;;;4.12;;
6013;SDS011;3035;49.928;8.410;2023-07-08T12:54:13;4.43;;;3.37;;
6013;SDS011;3035;49.928;8.410;2023-07-08T12:56:42;6.03;;;4.15;;
6013;SDS011;3035;49.928;8.410;2023-07-08T12:59:11;8.63;;;4.07;;
6013;SDS011;3035;49.928;8.410;2023-07-08T13:01:38;5.65;;;3.92;;
6013;SDS011;3035;49.928;8.410;2023-07-08T13:04:09;6.45;;;3.33;;
6013;SDS011;3035;49.928;8.410;2023-07-08T13:06:36;5.78;;;3.12;;
6013;SDS011;3035;49.928;8.410;2023-07-08T13:09:07;6.00;;;3.50;;
6013;SDS011;3035;49.928;8.410;2023-07-08T13:11:38;6.50;;;3.65;;
6013;SDS011;3035;49.928;8.410;2023-07-08T13:14:06;4.95;;;3.55;;
6013;SDS011;3035;49.928;8.410;2023-07-08T13:16:35;13.75;;;3.87;;
6013;SDS011;3035;49.928;8.410;2023-07-08T13:19:03;6.22;;;4.22;;
6013;SDS011;3035;49.928;8.410;2023-07-08T13:21:31;5.75;;;3.85;;
6013;SDS011;3035;49.928;8.410;2023-07-08T13:23:59;5.82;;;3.90;;
6013;SDS011;3035;49.928;8.410;2023-07-08T13:26:29;7.15;;;3.70;;
6013;SDS011;3035;49.928;8.410;2023-07-08T13:29:00;7.65;;;3.67;;
6013;SDS011;3035;49.928;8.410;2023-07-08T13:31:32;5.00;;;3.37;;
6013;SDS011;3035;49.928;8.410;2023-07-08T13:34:05;7.35;;;4.22;;
6013;SDS011;3035;49.928;8.410;2023-07-08T13:36:31;7.70;;;4.90;;
6013;SDS011;3035;49.928;8.410;2023-07-08T13:39:03;16.02;;;7.45;;
6013;SDS011;3035;49.928;8.410;2023-07-08T13:41:31;5.25;;;4.03;;
6013;SDS011;3035;49.928;8.410;2023-07-08T13:44:05;5.12;;;4.00;;
6013;SDS011;3035;49.928;8.410;2023-07-08T13:46:36;5.32;;;3.75;;
6013;SDS011;3035;49.928;8.410;2023-07-08T13:49:12;4.72;;;3.45;;
6013;SDS011;3035;49.928;8.410;2023-07-08T13:51:42;5.40;;;3.85;;
6013;SDS011;3035;49.928;8.410;2023-07-08T13:54:13;6.18;;;4.37;;
6013;SDS011;3035;49.928;8.410;2023-07-08T13:56:40;12.40;;;3.90;;
6013;SDS011;3035;49.928;8.410;2023-07-08T13:59:09;5.97;;;3.50;;
6013;SDS011;3035;49.928;8.410;2023-07-08T14:01:38;7.43;;;3.55;;
6013;SDS011;3035;49.928;8.410;2023-07-08T14:04:07;4.18;;;3.10;;
6013;SDS011;3035;49.928;8.410;2023-07-08T14:06:37;5.22;;;3.62;;
6013;SDS011;3035;49.928;8.410;2023-07-08T14:09:15;16.70;;;3.65;;
6013;SDS011;3035;49.928;8.410;2023-07-08T14:11:45;7.80;;;4.37;;
6013;SDS011;3035;49.928;8.410;2023-07-08T14:14:14;4.68;;;3.70;;
6013;SDS011;3035;49.928;8.410;2023-07-08T14:16:44;5.72;;;3.92;;
6013;SDS011;3035;49.928;8.410;2023-07-08T14:19:17;4.93;;;3.60;;
6013;SDS011;3035;49.928;8.410;2023-07-08T14:21:55;7.00;;;3.55;;
6013;SDS011;3035;49.928;8.410;2023-07-08T14:24:23;5.60;;;3.58;;
6013;SDS011;3035;49.928;8.410;2023-07-08T14:26:52;6.37;;;4.03;;
6013;SDS011;3035;49.928;8.410;2023-07-08T14:29:20;5.72;;;4.22;;
6013;SDS011;3035;49.928;8.410;2023-07-08T14:31:48;13.50;;;3.55;;
6013;SDS011;3035;49.928;8.410;2023-07-08T14:34:20;7.30;;;3.90;;
6013;SDS011;3035;49.928;8.410;2023-07-08T14:36:48;5.87;;;3.37;;
6013;SDS011;3035;49.928;8.410;2023-07-08T14:39:17;7.10;;;3.20;;
6013;SDS011;3035;49.928;8.410;2023-07-08T14:41:46;8.82;;;3.42;;
6013;SDS011;3035;49.928;8.410;2023-07-08T14:44:20;8.10;;;3.90;;
6013;SDS011;3035;49.928;8.410;2023-07-08T14:46:50;6.68;;;4.10;;
6013;SDS011;3035;49.928;8.410;2023-07-08T14:49:20;5.28;;;3.47;;
6013;SDS011;3035;49.928;8.410;2023-07-08T14:51:48;5.97;;;3.87;;
6013;SDS011;3035;49.928;8.410;2023-07-08T14:54:17;8.15;;;3.72;;
6013;SDS011;3035;49.928;8.410;2023-07-08T14:56:45;5.28;;;3.87;;
6013;SDS011;3035;49.928;8.410;2023-07-08T14:59:15;11.68;;;3.60;;
6013;SDS011;3035;49.928;8.410;2023-07-08T15:01:45;5.97;;;3.70;;
6013;SDS011;3035;49.928;8.410;2023-07-08T15:04:14;12.02;;;4.00;;
6013;SDS011;3035;49.928;8.410;2023-07-08T15:06:42;7.50;;;3.42;;
6013;SDS011;3035;49.928;8.410;2023-07-08T15:09:11;8.88;;;3.85;;
6013;SDS011;3035;49.928;8.410;2023-07-08T15:11:40;11.95;;;3.50;;
6013;SDS011;3035;49.928;8.410;2023-07-08T15:14:12;5.40;;;3.53;;
6013;SDS011;3035;49.928;8.410;2023-07-08T15:16:45;9.35;;;4.00;;
6013;SDS011;3035;49.928;8.410;2023-07-08T15:19:14;6.95;;;4.15;;
6013;SDS011;3035;49.928;8.410;2023-07-08T15:21:43;5.72;;;3.62;;
6013;SDS011;3035;49.928;8.410;2023-07-08T15:24:11;7.22;;;3.25;;
6013;SDS011;3035;49.928;8.410;2023-07-08T15:26:43;7.78;;;4.07;;
6013;SDS011;3035;49.928;8.410;2023-07-08T15:29:18;17.40;;;4.00;;
6013;SDS011;3035;49.928;8.410;2023-07-08T15:31:46;8.45;;;4.47;;
6013;SDS011;3035;49.928;8.410;2023-07-08T15:34:15;10.02;;;3.75;;
6013;SDS011;3035;49.928;8.410;2023-07-08T15:36:44;11.27;;;4.53;;
6013;SDS011;3035;49.928;8.410;2023-07-08T15:39:13;14.07;;;4.20;;
6013;SDS011;3035;49.928;8.410;2023-07-08T15:41:42;9.20;;;3.80;;
6013;SDS011;3035;49.928;8.410;2023-07-08T15:44:10;14.27;;;3.72;;
6013;SDS011;3035;49.928;8.410;2023-07-08T15:46:40;10.83;;;4.10;;
6013;SDS011;3035;49.928;8.410;2023-07-08T15:49:12;8.07;;;4.03;;
6013;SDS011;3035;49.928;8.410;2023-07-08T15:51:42;7.90;;;3.77;;
6013;SDS011;3035;49.928;8.410;2023-07-08T15:54:10;9.97;;;3.87;;
6013;SDS011;3035;49.928;8.410;2023-07-08T15:56:39;7.30;;;4.10;;
6013;SDS011;3035;49.928;8.410;2023-07-08T15:59:11;8.73;;;4.20;;
6013;SDS011;3035;49.928;8.410;2023-07-08T16:01:41;7.27;;;3.60;;
6013;SDS011;3035;49.928;8.410;2023-07-08T16:04:15;7.90;;;3.80;;